Hansa Limburg — A8IH6 — position and weather

sailwx.info

Track history (hours):
 
Tides and Currents Weather Stations Pressure Air Temp Water Temp Dewpoint Dewpoint Depression Visibility Wind Speed Wind Dir Waves Ship Positions

Hansa Limburg

Last reported at 2015-May-27 15:33 UTC. Time now 2015-May-27 15:54 UTC.
Position N 39°10' E 009°06'.

Length 175.5 m; beam 27.4 m; draft 10.9 m.

Type: Ship (hazmat cat C). MMSI: 636090980.

Date/timePositionNaut miles runAvg speedWind from/ knotsBaromVisibWave heightAir tempDewpointWater temp
2015-May-27 15:33N 39°10' E 009°06'7 7.0
2015-May-27 14:33N 39°05' E 009°12'1211.6
2015-May-27 13:33N 39°00' E 009°26'1111.1
2015-May-27 12:33N 39°01' E 009°40'1212.0
2015-May-27 11:33N 39°05' E 009°54'21212.5
2015-May-26 18:33N 40°26' E 014°09'1312.7
2015-May-26 17:33N 40°31' E 014°24'1312.4
2015-May-26 16:30N 40°36' E 014°40'4 0.2
2015-May-25 21:29N 40°35' E 014°35'1111.8
2015-May-25 20:31N 40°32' E 014°20'8 8.4
2015-May-25 19:33N 40°34' E 014°10'1212.2
2015-May-25 18:33N 40°45' E 014°16'5 5.0
2015-May-25 17:30N 40°50' E 014°17'0 0.0
2015-May-25 16:32N 40°50' E 014°17'0 0.0
2015-May-25 15:29N 40°50' E 014°17'0 0.0
2015-May-25 14:31N 40°50' E 014°17'0 0.0
2015-May-25 13:31N 40°50' E 014°17'0 0.0
2015-May-25 11:30N 40°50' E 014°17'5 5.7
2015-May-25 10:33N 40°46' E 014°13'1515.3
2015-May-25 09:33N 40°39' E 013°56'1615.9
2015-May-25 08:33N 40°46' E 013°37'1817.7
2015-May-25 07:33N 40°58' E 013°19'15317.0
2015-May-24 22:33N 42°32' E 010°38'1917.6
2015-May-24 21:28N 42°50' E 010°31'1617.4
2015-May-24 20:33N 43°04' E 010°20'1717.5
2015-May-24 19:34N 43°21' E 010°15'1211.9
2015-May-24 18:33N 43°33' E 010°17'2 1.7
2015-May-24 17:33N 43°34' E 010°18'0 0.0
2015-May-24 16:33N 43°34' E 010°18'0 0.0
2015-May-24 15:33N 43°34' E 010°18'0 0.0
2015-May-24 14:33N 43°34' E 010°18'0 0.0
2015-May-24 13:33N 43°34' E 010°18'0 0.0
2015-May-24 12:33N 43°34' E 010°18'3 3.5
2015-May-24 11:33N 43°31' E 010°16'6 6.0
2015-May-24 10:33N 43°30' E 010°08'1818.2
2015-May-24 09:34N 43°39' E 009°46'2019.6
2015-May-24 08:33N 43°53' E 009°26'2019.6
2015-May-24 07:33N 44°06' E 009°06'1919.4
2015-May-24 06:34N 44°20' E 008°47'5 5.3
2015-May-24 05:32N 44°25' E 008°47'0 0.0
2015-May-24 04:32N 44°25' E 008°47'0 0.0
2015-May-24 03:33N 44°25' E 008°47'0 0.0
2015-May-24 02:33N 44°25' E 008°47'0 0.0
2015-May-24 01:33N 44°25' E 008°47'0 0.0
2015-May-24 00:33N 44°25' E 008°47'0 0.0
2015-May-23 23:33N 44°25' E 008°47'0 0.0
2015-May-23 22:33N 44°25' E 008°47'0 0.0
2015-May-23 21:33N 44°25' E 008°47'0 0.0
2015-May-23 20:33N 44°25' E 008°47'0 0.0
2015-May-23 19:33N 44°25' E 008°47'0 0.0
2015-May-23 18:33N 44°25' E 008°47'0 0.0
2015-May-23 17:33N 44°25' E 008°47'0 0.0
2015-May-23 16:33N 44°25' E 008°47'0 0.0
2015-May-23 15:33N 44°25' E 008°47'0 0.0
2015-May-23 14:33N 44°25' E 008°47'0 0.0
2015-May-23 13:33N 44°25' E 008°47'0 0.0
2015-May-23 12:33N 44°25' E 008°47'0 0.0
2015-May-23 11:33N 44°25' E 008°47'0 0.0
2015-May-23 10:31N 44°25' E 008°47'0 0.3
2015-May-23 09:34N 44°25' E 008°47'5 5.2
2015-May-23 08:33N 44°20' E 008°46'1212.5
2015-May-23 07:34N 44°09' E 008°55'1616.1
2015-May-23 06:33N 43°55' E 009°07'1818.0
2015-May-23 05:33N 43°40' E 009°19'1918.6
2015-May-23 04:34N 43°23' E 009°30'1818.4
2015-May-23 03:33N 43°06' E 009°39'22017.7
2015-May-22 15:09N 39°26' E 009°51'2817.2
2015-May-22 13:33N 39°01' E 009°39'1716.7
2015-May-22 12:33N 39°02' E 009°18'1514.8
2015-May-22 11:33N 39°13' E 009°04'0 0.2
2015-May-22 10:33N 39°13' E 009°04'0 0.0
2015-May-22 09:33N 39°13' E 009°04'0 0.0
2015-May-22 08:31N 39°13' E 009°04'0 0.0
2015-May-22 07:31N 39°13' E 009°04'0 0.0
2015-May-22 06:31N 39°13' E 009°04'0 0.0
2015-May-22 05:31N 39°13' E 009°04'0 0.0
2015-May-22 04:31N 39°13' E 009°04'0 0.0
2015-May-22 03:31N 39°13' E 009°04'0 0.0
2015-May-22 02:33N 39°13' E 009°04'0 0.0
2015-May-22 01:33N 39°13' E 009°04'0 0.0
2015-May-22 00:33N 39°13' E 009°04'0 0.0
2015-May-21 23:33N 39°13' E 009°04'0 0.0
2015-May-21 22:32N 39°13' E 009°04'0 0.0
2015-May-21 21:32N 39°13' E 009°04'0 0.0
2015-May-21 20:32N 39°13' E 009°04'0 0.0
2015-May-21 19:33N 39°13' E 009°04'0 0.0
2015-May-21 18:33N 39°13' E 009°04'0 0.0
2015-May-21 17:33N 39°13' E 009°04'0 0.0
2015-May-21 16:33N 39°13' E 009°04'0 0.0
2015-May-21 15:33N 39°13' E 009°04'0 0.0
2015-May-21 14:33N 39°13' E 009°04'0 0.0
2015-May-21 13:33N 39°13' E 009°04'0 0.0
2015-May-21 12:33N 39°13' E 009°04'0 0.0
2015-May-21 11:32N 39°13' E 009°04'0 0.3
2015-May-21 10:33N 39°13' E 009°04'7 6.9
2015-May-21 09:34N 39°07' E 009°08'1413.7
2015-May-21 08:33N 38°59' E 009°23'15512.9
2015-May-20 20:32N 37°34' E 012°08'1313.7
2015-May-20 19:33N 37°27' E 012°22'1413.6
2015-May-20 18:33N 37°19' E 012°36'1313.4
2015-May-20 17:33N 37°14' E 012°52'1313.2
2015-May-20 16:33N 37°09' E 013°07'1313.1
2015-May-20 15:33N 37°04' E 013°22'1313.4
2015-May-20 14:34N 36°58' E 013°37'1413.6
2015-May-20 13:33N 36°53' E 013°53'1413.9
2015-May-20 12:34N 36°48' E 014°09'1413.7
2015-May-20 11:33N 36°42' E 014°25'1414.1
2015-May-20 10:33N 36°36' E 014°41'1514.9
2015-May-20 09:33N 36°33' E 014°59'1515.3
2015-May-20 08:33N 36°32' E 015°18'1515.4
2015-May-20 07:33N 36°32' E 015°37'1515.2
2015-May-20 06:33N 36°31' E 015°56'3115.0
2015-May-20 04:28N 36°30' E 016°35'33814.1
2015-May-19 04:32N 36°50' E 023°35'7615.3
2015-May-18 23:33N 37°53' E 024°30'  
Track history (hours):
 
Tides and Currents Weather Stations Pressure Air Temp Water Temp Dewpoint Dewpoint Depression Visibility Wind Speed Wind Dir Waves Ship Positions

Hansa Limburg

Last reported at 2015-May-27 15:33 UTC. Time now 2015-May-27 15:54 UTC.
Position N 39°10' E 009°06'.

Length 175.5 m; beam 27.4 m; draft 10.9 m.

Type: Ship (hazmat cat C). MMSI: 636090980.

Date/timePositionNaut miles runAvg speedWind from/ knotsBaromVisibWave heightAir tempDewpointWater temp
2015-May-27 15:33N 39°10' E 009°06'7 7.0
2015-May-27 14:33N 39°05' E 009°12'1211.6
2015-May-27 13:33N 39°00' E 009°26'1111.1
2015-May-27 12:33N 39°01' E 009°40'1212.0
2015-May-27 11:33N 39°05' E 009°54'21212.5
2015-May-26 18:33N 40°26' E 014°09'1312.7
2015-May-26 17:33N 40°31' E 014°24'1312.4
2015-May-26 16:30N 40°36' E 014°40'4 0.2
2015-May-25 21:29N 40°35' E 014°35'1111.8
2015-May-25 20:31N 40°32' E 014°20'8 8.4
2015-May-25 19:33N 40°34' E 014°10'1212.2
2015-May-25 18:33N 40°45' E 014°16'5 5.0
2015-May-25 17:30N 40°50' E 014°17'0 0.0
2015-May-25 16:32N 40°50' E 014°17'0 0.0
2015-May-25 15:29N 40°50' E 014°17'0 0.0
2015-May-25 14:31N 40°50' E 014°17'0 0.0
2015-May-25 13:31N 40°50' E 014°17'0 0.0
2015-May-25 11:30N 40°50' E 014°17'5 5.7
2015-May-25 10:33N 40°46' E 014°13'1515.3
2015-May-25 09:33N 40°39' E 013°56'1615.9
2015-May-25 08:33N 40°46' E 013°37'1817.7
2015-May-25 07:33N 40°58' E 013°19'15317.0
2015-May-24 22:33N 42°32' E 010°38'1917.6
2015-May-24 21:28N 42°50' E 010°31'1617.4
2015-May-24 20:33N 43°04' E 010°20'1717.5
2015-May-24 19:34N 43°21' E 010°15'1211.9
2015-May-24 18:33N 43°33' E 010°17'2 1.7
2015-May-24 17:33N 43°34' E 010°18'0 0.0
2015-May-24 16:33N 43°34' E 010°18'0 0.0
2015-May-24 15:33N 43°34' E 010°18'0 0.0
2015-May-24 14:33N 43°34' E 010°18'0 0.0
2015-May-24 13:33N 43°34' E 010°18'0 0.0
2015-May-24 12:33N 43°34' E 010°18'3 3.5
2015-May-24 11:33N 43°31' E 010°16'6 6.0
2015-May-24 10:33N 43°30' E 010°08'1818.2
2015-May-24 09:34N 43°39' E 009°46'2019.6
2015-May-24 08:33N 43°53' E 009°26'2019.6
2015-May-24 07:33N 44°06' E 009°06'1919.4
2015-May-24 06:34N 44°20' E 008°47'5 5.3
2015-May-24 05:32N 44°25' E 008°47'0 0.0
2015-May-24 04:32N 44°25' E 008°47'0 0.0
2015-May-24 03:33N 44°25' E 008°47'0 0.0
2015-May-24 02:33N 44°25' E 008°47'0 0.0
2015-May-24 01:33N 44°25' E 008°47'0 0.0
2015-May-24 00:33N 44°25' E 008°47'0 0.0
2015-May-23 23:33N 44°25' E 008°47'0 0.0
2015-May-23 22:33N 44°25' E 008°47'0 0.0
2015-May-23 21:33N 44°25' E 008°47'0 0.0
2015-May-23 20:33N 44°25' E 008°47'0 0.0
2015-May-23 19:33N 44°25' E 008°47'0 0.0
2015-May-23 18:33N 44°25' E 008°47'0 0.0
2015-May-23 17:33N 44°25' E 008°47'0 0.0
2015-May-23 16:33N 44°25' E 008°47'0 0.0
2015-May-23 15:33N 44°25' E 008°47'0 0.0
2015-May-23 14:33N 44°25' E 008°47'0 0.0
2015-May-23 13:33N 44°25' E 008°47'0 0.0
2015-May-23 12:33N 44°25' E 008°47'0 0.0
2015-May-23 11:33N 44°25' E 008°47'0 0.0
2015-May-23 10:31N 44°25' E 008°47'0 0.3
2015-May-23 09:34N 44°25' E 008°47'5 5.2
2015-May-23 08:33N 44°20' E 008°46'1212.5
2015-May-23 07:34N 44°09' E 008°55'1616.1
2015-May-23 06:33N 43°55' E 009°07'1818.0
2015-May-23 05:33N 43°40' E 009°19'1918.6
2015-May-23 04:34N 43°23' E 009°30'1818.4
2015-May-23 03:33N 43°06' E 009°39'22017.7
2015-May-22 15:09N 39°26' E 009°51'2817.2
2015-May-22 13:33N 39°01' E 009°39'1716.7
2015-May-22 12:33N 39°02' E 009°18'1514.8
2015-May-22 11:33N 39°13' E 009°04'0 0.2
2015-May-22 10:33N 39°13' E 009°04'0 0.0
2015-May-22 09:33N 39°13' E 009°04'0 0.0
2015-May-22 08:31N 39°13' E 009°04'0 0.0
2015-May-22 07:31N 39°13' E 009°04'0 0.0
2015-May-22 06:31N 39°13' E 009°04'0 0.0
2015-May-22 05:31N 39°13' E 009°04'0 0.0
2015-May-22 04:31N 39°13' E 009°04'0 0.0
2015-May-22 03:31N 39°13' E 009°04'0 0.0
2015-May-22 02:33N 39°13' E 009°04'0 0.0
2015-May-22 01:33N 39°13' E 009°04'0 0.0
2015-May-22 00:33N 39°13' E 009°04'0 0.0
2015-May-21 23:33N 39°13' E 009°04'0 0.0
2015-May-21 22:32N 39°13' E 009°04'0 0.0
2015-May-21 21:32N 39°13' E 009°04'0 0.0
2015-May-21 20:32N 39°13' E 009°04'0 0.0
2015-May-21 19:33N 39°13' E 009°04'0 0.0
2015-May-21 18:33N 39°13' E 009°04'0 0.0
2015-May-21 17:33N 39°13' E 009°04'0 0.0
2015-May-21 16:33N 39°13' E 009°04'0 0.0
2015-May-21 15:33N 39°13' E 009°04'0 0.0
2015-May-21 14:33N 39°13' E 009°04'0 0.0
2015-May-21 13:33N 39°13' E 009°04'0 0.0
2015-May-21 12:33N 39°13' E 009°04'0 0.0
2015-May-21 11:32N 39°13' E 009°04'0 0.3
2015-May-21 10:33N 39°13' E 009°04'7 6.9
2015-May-21 09:34N 39°07' E 009°08'1413.7
2015-May-21 08:33N 38°59' E 009°23'15512.9
2015-May-20 20:32N 37°34' E 012°08'1313.7
2015-May-20 19:33N 37°27' E 012°22'1413.6
2015-May-20 18:33N 37°19' E 012°36'1313.4
2015-May-20 17:33N 37°14' E 012°52'1313.2
2015-May-20 16:33N 37°09' E 013°07'1313.1
2015-May-20 15:33N 37°04' E 013°22'1313.4
2015-May-20 14:34N 36°58' E 013°37'1413.6
2015-May-20 13:33N 36°53' E 013°53'1413.9
2015-May-20 12:34N 36°48' E 014°09'1413.7
2015-May-20 11:33N 36°42' E 014°25'1414.1
2015-May-20 10:33N 36°36' E 014°41'1514.9
2015-May-20 09:33N 36°33' E 014°59'1515.3
2015-May-20 08:33N 36°32' E 015°18'1515.4
2015-May-20 07:33N 36°32' E 015°37'1515.2
2015-May-20 06:33N 36°31' E 015°56'3115.0
2015-May-20 04:28N 36°30' E 016°35'33814.1
2015-May-19 04:32N 36°50' E 023°35'7615.3
2015-May-18 23:33N 37°53' E 024°30'  

Dump ship's entire track history